Kingsland, Texas
Current Conditions -  °F | °C
As of 3:35 PM on Friday 28 Nov 2014 (Local Time) from KDZB Reporting Station
Clear Clear  
Wind Chill: 71°   Ceiling: Unl
Heat Index: 71°   Visibility: 10mi
Dew Point: 46°   Wind: 6mph
Humidity: 39%   Direction: 200°SSW
Pressure: 30.11"   Gusts: 17mph
Location:  30.66°N, 98.44°W
Report Text: KDZB 282135Z AUTO 20005G15KT 10SM CLR 22/08 A3011 RMK AO2 T02190075
Loading
Personal Weather Stations






























Interactive Weather Map New forecast layout! Learn more

10-Day Weather Forecast

Advertisements
Track Severe Weather on mobile